createdAt,value
2022-10-01T00:02:10.627Z,99494.34
2022-10-01T00:04:37.891Z,99493.50
2022-10-01T00:07:09.319Z,99486.50
2022-10-01T00:09:35.716Z,99481.94
2022-10-01T00:12:02.906Z,99475.94
2022-10-01T00:14:29.461Z,99472.41
2022-10-01T00:16:55.882Z,99474.88
2022-10-01T00:19:22.890Z,99474.06
2022-10-01T00:21:49.589Z,99466.81
2022-10-01T00:24:15.999Z,99463.50
2022-10-01T00:26:42.896Z,99463.31
2022-10-01T00:29:13.020Z,99470.56
2022-10-01T00:31:40.169Z,99459.16
2022-10-01T00:34:06.727Z,99453.78
2022-10-01T00:36:34.053Z,99453.38
2022-10-01T00:39:00.925Z,99439.31
2022-10-01T00:41:33.578Z,99436.88
2022-10-01T00:44:32.390Z,99435.00
2022-10-01T00:47:08.354Z,99439.13
2022-10-01T00:49:37.832Z,99432.09
2022-10-01T00:52:09.632Z,99430.22
2022-10-01T00:54:50.815Z,99434.38
2022-10-01T00:57:21.802Z,99421.13
2022-10-01T00:59:49.922Z,99418.84
2022-10-01T01:02:16.401Z,99409.13
2022-10-01T01:04:42.935Z,99396.09
2022-10-01T01:07:09.863Z,99400.03
2022-10-01T01:09:41.811Z,99391.16
2022-10-01T01:12:47.453Z,99385.19
2022-10-01T01:15:21.586Z,99383.28
2022-10-01T01:17:59.895Z,99381.44
2022-10-01T01:20:49.907Z,99367.97
2022-10-01T01:23:16.236Z,99368.19
2022-10-01T01:25:51.795Z,99374.00
2022-10-01T01:28:32.048Z,99365.28
2022-10-01T01:31:04.665Z,99369.22
2022-10-01T01:33:34.830Z,99361.56
2022-10-01T01:36:06.887Z,99353.72
2022-10-01T01:38:39.103Z,99351.66
2022-10-01T01:41:07.848Z,99326.78
2022-10-01T01:43:38.434Z,99337.78
2022-10-01T01:46:07.594Z,99336.28
2022-10-01T01:48:36.748Z,99336.75
2022-10-01T01:51:11.124Z,99338.41
2022-10-01T01:53:38.130Z,99324.72
2022-10-01T01:56:06.122Z,99325.53
2022-10-01T01:58:34.168Z,99321.84
2022-10-01T02:01:02.272Z,99313.97
2022-10-01T02:03:30.640Z,99313.97
2022-10-01T02:06:13.855Z,99310.28
2022-10-01T02:08:49.774Z,99306.16
2022-10-01T02:11:26.973Z,99302.44
2022-10-01T02:14:06.624Z,99302.22
2022-10-01T02:16:46.675Z,99295.19
2022-10-01T02:19:14.029Z,99288.34
2022-10-01T02:22:00.319Z,99281.34
2022-10-01T02:24:26.631Z,99283.97
2022-10-01T02:26:55.811Z,99284.78
2022-10-01T02:29:23.772Z,99286.66
2022-10-01T02:31:53.436Z,99276.72
2022-10-01T02:34:21.719Z,99262.06
2022-10-01T02:36:48.970Z,99268.47
2022-10-01T02:39:18.250Z,99263.09
2022-10-01T02:41:47.990Z,99259.78
2022-10-01T02:44:21.310Z,99256.28
2022-10-01T02:47:03.894Z,99256.31
2022-10-01T02:49:31.207Z,99258.53
2022-10-01T02:52:19.235Z,99257.72
2022-10-01T02:54:51.802Z,99251.34
2022-10-01T02:57:26.947Z,99256.06
2022-10-01T03:00:07.636Z,99253.63
2022-10-01T03:02:34.205Z,99246.16
2022-10-01T03:05:01.982Z,99248.00
2022-10-01T03:07:31.165Z,99249.47
2022-10-01T03:09:58.013Z,99244.47
2022-10-01T03:12:24.404Z,99243.66
2022-10-01T03:14:51.127Z,99242.84
2022-10-01T03:17:17.965Z,99235.78
2022-10-01T03:19:44.408Z,99234.78
2022-10-01T03:22:14.064Z,99230.66
2022-10-01T03:24:40.559Z,99204.59
2022-10-01T03:27:06.972Z,99223.41
2022-10-01T03:29:33.399Z,99225.03
2022-10-01T03:31:59.919Z,99212.03
2022-10-01T03:34:26.396Z,99211.00
2022-10-01T03:36:52.831Z,99217.22
2022-10-01T03:39:19.500Z,99205.63
2022-10-01T03:41:46.139Z,99201.47
2022-10-01T03:44:12.787Z,99211.00
2022-10-01T03:46:39.230Z,99211.00
2022-10-01T03:49:05.632Z,99204.78
2022-10-01T03:51:32.455Z,99199.03
2022-10-01T03:53:59.223Z,99204.16
2022-10-01T03:56:26.149Z,99220.09
2022-10-01T03:58:53.625Z,99196.53
2022-10-01T04:01:20.484Z,99200.66
2022-10-01T04:03:47.179Z,99203.16
2022-10-01T04:06:13.835Z,99195.91
2022-10-01T04:08:40.315Z,99195.47
2022-10-01T04:11:07.603Z,99193.66
2022-10-01T04:13:34.824Z,99194.66
2022-10-01T04:16:05.209Z,99195.28
2022-10-01T04:18:31.678Z,99184.97
2022-10-01T04:20:58.215Z,99197.97
2022-10-01T04:23:25.396Z,99190.09
2022-10-01T04:25:51.766Z,99195.47
2022-10-01T04:28:18.315Z,99195.72
2022-10-01T04:30:46.328Z,99197.97
2022-10-01T04:33:16.794Z,99184.72
2022-10-01T04:35:43.579Z,99184.09
2022-10-01T04:38:16.851Z,99189.09
2022-10-01T04:40:43.793Z,99193.03
2022-10-01T04:43:13.251Z,99188.66
2022-10-01T04:45:39.880Z,99180.59
2022-10-01T04:48:06.279Z,99168.00
2022-10-01T04:50:33.144Z,99183.09
2022-10-01T04:52:59.625Z,99176.03
2022-10-01T04:55:26.179Z,99179.59
2022-10-01T04:57:52.618Z,99171.53
2022-10-01T05:00:21.971Z,99180.41
2022-10-01T05:02:50.002Z,99181.22
2022-10-01T05:05:17.997Z,99174.22
2022-10-01T05:07:44.638Z,99176.47
2022-10-01T05:10:19.685Z,99176.09
2022-10-01T05:12:47.237Z,99176.28
2022-10-01T05:15:15.383Z,99174.41
2022-10-01T05:17:42.050Z,99180.84
2022-10-01T05:20:15.538Z,99175.84
2022-10-01T05:22:41.907Z,99175.47
2022-10-01T05:25:08.638Z,99176.47
2022-10-01T05:27:40.402Z,99164.28
2022-10-01T05:30:09.187Z,99175.47
2022-10-01T05:32:36.365Z,99158.91
2022-10-01T05:35:03.967Z,99176.66
2022-10-01T05:37:30.352Z,99172.16
2022-10-01T05:39:56.727Z,99168.00
2022-10-01T05:42:23.106Z,99172.97
2022-10-01T05:44:50.044Z,99158.09
2022-10-01T05:47:17.380Z,99158.91
2022-10-01T05:49:44.491Z,99161.59
2022-10-01T05:52:12.136Z,99159.72
2022-10-01T05:54:38.730Z,99164.28
2022-10-01T05:57:06.115Z,99164.72
2022-10-01T05:59:32.548Z,99154.56
2022-10-01T06:01:59.116Z,99161.59
2022-10-01T06:04:25.655Z,99156.22
2022-10-01T06:06:53.503Z,99155.41
2022-10-01T06:09:19.908Z,99159.94
2022-10-01T06:11:48.867Z,99157.25
2022-10-01T06:14:18.906Z,99151.88
2022-10-01T06:16:46.896Z,99119.44
2022-10-01T06:19:13.463Z,99146.50
2022-10-01T06:21:39.839Z,99137.00
2022-10-01T06:24:06.270Z,99144.22
2022-10-01T06:26:32.690Z,99139.47
2022-10-01T06:28:59.075Z,99130.59
2022-10-01T06:31:25.519Z,99127.91
2022-10-01T06:33:51.963Z,99125.44
2022-10-01T06:36:18.364Z,99124.41
2022-10-01T06:38:48.424Z,99120.88
2022-10-01T06:41:15.320Z,99107.06
2022-10-01T06:43:41.692Z,99113.03
2022-10-01T06:46:08.541Z,99111.19
2022-10-01T06:48:36.596Z,99106.00
2022-10-01T06:51:03.586Z,99101.44
2022-10-01T06:53:30.091Z,99103.31
2022-10-01T06:55:56.897Z,99107.06
2022-10-01T06:58:27.966Z,99097.75
2022-10-01T07:01:02.075Z,99098.34
2022-10-01T07:03:28.737Z,99085.31
2022-10-01T07:06:01.455Z,99088.44
2022-10-01T07:08:27.931Z,99076.66
2022-10-01T07:10:59.547Z,99088.25
2022-10-01T07:13:25.952Z,99079.34
2022-10-01T07:15:52.333Z,99073.75
2022-10-01T07:18:18.755Z,99074.59
2022-10-01T07:20:45.141Z,99072.13
2022-10-01T07:23:13.495Z,99069.22
2022-10-01T07:25:41.502Z,99066.53
2022-10-01T07:28:16.310Z,99075.22
2022-10-01T07:30:56.652Z,99067.38
2022-10-01T07:33:23.166Z,99060.53
2022-10-01T07:35:49.538Z,99058.91
2022-10-01T07:38:16.599Z,99065.09
2022-10-01T07:40:43.179Z,99058.06
2022-10-01T07:43:09.569Z,99050.03
2022-10-01T07:45:36.007Z,99047.34
2022-10-01T07:48:03.154Z,99048.16
2022-10-01T07:50:32.685Z,99044.66
2022-10-01T07:52:59.916Z,99033.47
2022-10-01T07:55:28.103Z,99034.91
2022-10-01T07:57:59.509Z,99048.16
2022-10-01T08:00:27.374Z,99042.97
2022-10-01T08:02:56.052Z,99045.66
2022-10-01T08:05:29.002Z,99042.78
2022-10-01T08:08:00.434Z,99036.78
2022-10-01T08:10:27.850Z,99039.28
2022-10-01T08:13:01.337Z,99030.97
2022-10-01T08:15:28.774Z,99034.91
2022-10-01T08:17:55.232Z,99020.88
2022-10-01T08:20:21.602Z,99018.81
2022-10-01T08:22:48.038Z,99023.56
2022-10-01T08:25:14.483Z,99015.50
2022-10-01T08:27:42.049Z,99006.00
2022-10-01T08:30:08.890Z,99019.84
2022-10-01T08:32:35.295Z,99020.66
2022-10-01T08:35:01.682Z,99015.50
2022-10-01T08:37:29.283Z,99018.81
2022-10-01T08:39:56.588Z,99018.81
2022-10-01T08:42:25.890Z,99010.97
2022-10-01T08:44:53.091Z,99009.50
2022-10-01T08:47:33.767Z,99008.91
2022-10-01T08:50:26.023Z,99008.47
2022-10-01T08:52:57.725Z,98997.13
2022-10-01T08:55:27.826Z,99010.53
2022-10-01T08:57:58.802Z,99011.38
2022-10-01T09:00:27.274Z,99010.97
2022-10-01T09:02:53.970Z,98996.94
2022-10-01T09:05:39.343Z,99004.75
2022-10-01T09:08:43.791Z,99007.03
2022-10-01T09:11:25.432Z,99008.91
2022-10-01T09:13:59.724Z,99010.13
2022-10-01T09:16:37.537Z,99011.97
2022-10-01T09:19:29.764Z,99003.53
2022-10-01T09:21:58.977Z,99007.88
2022-10-01T09:24:28.391Z,99008.06
2022-10-01T09:26:55.250Z,99008.06
2022-10-01T09:29:33.830Z,99006.59
2022-10-01T09:32:03.365Z,99004.38
2022-10-01T09:34:41.011Z,99006.81
2022-10-01T09:37:27.607Z,99012.59
2022-10-01T09:40:19.862Z,99017.16
2022-10-01T09:42:47.518Z,99008.50
2022-10-01T09:45:18.670Z,99009.09
2022-10-01T09:47:51.330Z,99014.06
2022-10-01T09:50:45.022Z,99020.03
2022-10-01T09:53:20.037Z,99008.88
2022-10-01T09:55:53.527Z,99004.56
2022-10-01T09:58:26.678Z,99016.72
2022-10-01T10:00:54.650Z,99008.88
2022-10-01T10:03:28.424Z,98995.69
2022-10-01T10:05:54.977Z,99003.50
2022-10-01T10:08:31.154Z,99005.59
2022-10-01T10:11:00.631Z,99013.03
2022-10-01T10:13:27.081Z,99012.41
2022-10-01T10:15:59.540Z,99004.97
2022-10-01T10:18:35.266Z,99007.66
2022-10-01T10:21:10.787Z,99004.75
2022-10-01T10:23:47.510Z,99016.34
2022-10-01T10:26:19.510Z,99015.91
2022-10-01T10:28:46.696Z,99005.19
2022-10-01T10:31:20.223Z,99008.88
2022-10-01T10:34:05.576Z,99001.84
2022-10-01T10:36:35.691Z,99003.31
2022-10-01T10:39:06.187Z,99010.97
2022-10-01T10:41:35.591Z,99014.69
2022-10-01T10:44:06.428Z,99013.44
2022-10-01T10:46:35.432Z,99003.94
2022-10-01T10:49:07.996Z,99005.38
2022-10-01T10:52:17.509Z,99009.72
2022-10-01T10:54:48.525Z,99014.06
2022-10-01T10:57:28.732Z,99011.59
2022-10-01T11:00:07.643Z,99009.72
2022-10-01T11:02:34.121Z,99005.81
2022-10-01T11:05:14.828Z,99002.28
2022-10-01T11:07:45.082Z,99005.78
2022-10-01T11:10:28.180Z,99003.28
2022-10-01T11:13:13.475Z,98998.72
2022-10-01T11:15:58.340Z,99001.66
2022-10-01T11:18:43.705Z,99002.06
2022-10-01T11:21:16.031Z,98996.91
2022-10-01T11:23:42.399Z,98994.00
2022-10-01T11:26:16.466Z,98994.25
2022-10-01T11:28:46.005Z,98991.56
2022-10-01T11:31:37.573Z,99005.97
2022-10-01T11:34:50.256Z,99007.22
2022-10-01T11:37:28.536Z,99008.47
2022-10-01T11:39:58.419Z,98993.19
2022-10-01T11:42:35.478Z,99002.69
2022-10-01T11:45:42.276Z,99006.00
2022-10-01T11:48:19.203Z,98998.38
2022-10-01T11:50:51.696Z,99003.50
2022-10-01T11:53:20.887Z,99007.66
2022-10-01T11:56:19.178Z,99012.41
2022-10-01T11:58:50.832Z,99019.25
2022-10-01T12:01:29.274Z,99014.69
2022-10-01T12:04:06.812Z,99014.69
2022-10-01T12:06:43.396Z,99021.09
2022-10-01T12:09:21.702Z,99016.94
2022-10-01T12:12:03.705Z,99022.31
2022-10-01T12:14:42.981Z,99029.34
2022-10-01T12:17:34.971Z,99025.84
2022-10-01T12:20:04.584Z,99022.31
2022-10-01T12:22:34.590Z,99033.69
2022-10-01T12:25:01.555Z,99033.06
2022-10-01T12:27:35.810Z,99028.53
2022-10-01T12:30:09.927Z,99030.78
2022-10-01T12:32:47.697Z,99037.22
2022-10-01T12:35:36.171Z,99043.81
2022-10-01T12:38:40.765Z,99036.56
2022-10-01T12:41:31.561Z,99037.59
2022-10-01T12:44:03.927Z,99045.28
2022-10-01T12:46:40.095Z,99051.03
2022-10-01T12:49:12.663Z,99037.81
2022-10-01T12:51:43.998Z,99050.63
2022-10-01T12:54:46.356Z,99050.00
2022-10-01T12:57:33.020Z,99056.41
2022-10-01T13:00:04.972Z,99063.44
2022-10-01T13:03:13.045Z,99062.00
2022-10-01T13:05:48.402Z,99072.94
2022-10-01T13:08:17.673Z,99063.44
2022-10-01T13:11:25.343Z,99069.00
2022-10-01T13:13:53.596Z,99071.28
2022-10-01T13:16:43.794Z,99078.31
2022-10-01T13:19:17.956Z,99078.31
2022-10-01T13:22:07.665Z,99089.06
2022-10-01T13:24:52.814Z,99093.00
2022-10-01T13:27:35.797Z,99085.13
2022-10-01T13:30:13.705Z,99087.38
2022-10-01T13:32:57.784Z,99091.94
2022-10-01T13:35:24.416Z,99096.94
2022-10-01T13:37:50.950Z,99094.44
2022-10-01T13:40:32.119Z,99102.28
2022-10-01T13:43:16.217Z,99102.50
2022-10-01T13:45:48.464Z,99104.97
2022-10-01T13:48:19.340Z,99111.38
2022-10-01T13:51:05.121Z,99112.59
2022-10-01T13:53:36.208Z,99099.38
2022-10-01T13:56:03.657Z,99098.75
2022-10-01T13:58:29.961Z,99101.44
2022-10-01T14:00:59.194Z,99107.25
2022-10-01T14:03:43.521Z,99111.38
2022-10-01T14:06:24.398Z,99112.59
2022-10-01T14:09:05.428Z,99110.75
2022-10-01T14:11:54.419Z,99106.81
2022-10-01T14:14:46.317Z,99113.22
2022-10-01T14:17:14.099Z,99108.50
2022-10-01T14:19:47.132Z,99106.41
2022-10-01T14:22:32.520Z,99109.31
2022-10-01T14:25:15.444Z,99118.00
2022-10-01T14:27:44.586Z,99117.16
2022-10-01T14:30:15.899Z,99123.78
2022-10-01T14:33:12.855Z,99122.53
2022-10-01T14:36:00.922Z,99128.31
2022-10-01T14:38:28.421Z,99126.88
2022-10-01T14:40:54.875Z,99133.06
2022-10-01T14:43:26.683Z,99147.13
2022-10-01T14:45:54.943Z,99149.41
2022-10-01T14:48:22.938Z,99148.97
2022-10-01T14:50:53.230Z,99144.84
2022-10-01T14:53:22.871Z,99148.59
2022-10-01T14:55:53.723Z,99149.59
2022-10-01T14:58:26.340Z,99155.78
2022-10-01T15:00:55.192Z,99154.59
2022-10-01T15:03:21.725Z,99157.66
2022-10-01T15:05:49.708Z,99154.59
2022-10-01T15:08:16.125Z,99160.78
2022-10-01T15:11:08.062Z,99165.31
2022-10-01T15:13:41.890Z,99163.03
2022-10-01T15:16:14.032Z,99171.72
2022-10-01T15:19:09.283Z,99171.13
2022-10-01T15:21:45.356Z,99168.63
2022-10-01T15:24:36.188Z,99167.63
2022-10-01T15:27:02.831Z,99168.84
2022-10-01T15:29:29.297Z,99169.47
2022-10-01T15:31:57.644Z,99171.09
2022-10-01T15:34:25.771Z,99170.09
2022-10-01T15:36:53.660Z,99171.09
2022-10-01T15:39:40.145Z,99175.88
2022-10-01T15:42:31.599Z,99178.78
2022-10-01T15:45:07.166Z,99179.00
2022-10-01T15:47:49.289Z,99179.78
2022-10-01T15:50:38.046Z,99193.03
2022-10-01T15:53:19.569Z,99184.38
2022-10-01T15:55:49.462Z,99187.22
2022-10-01T15:58:19.515Z,99194.50
2022-10-01T16:01:21.522Z,99192.22
2022-10-01T16:03:56.107Z,99185.59
2022-10-01T16:06:27.123Z,99189.72
2022-10-01T16:09:05.521Z,99202.97
2022-10-01T16:11:51.119Z,99200.03
2022-10-01T16:14:28.199Z,99205.88
2022-10-01T16:17:19.628Z,99222.41
2022-10-01T16:19:52.233Z,99227.38
2022-10-01T16:22:33.644Z,99222.63
2022-10-01T16:25:07.448Z,99232.72
2022-10-01T16:27:42.978Z,99231.50
2022-10-01T16:30:11.996Z,99231.91
2022-10-01T16:32:38.429Z,99241.59
2022-10-01T16:35:25.432Z,99243.69
2022-10-01T16:37:54.834Z,99245.09
2022-10-01T16:40:25.295Z,99253.44
2022-10-01T16:42:52.722Z,99259.41
2022-10-01T16:45:24.948Z,99260.84
2022-10-01T16:47:52.678Z,99259.59
2022-10-01T16:50:23.895Z,99270.56
2022-10-01T16:52:55.598Z,99263.97
2022-10-01T16:55:24.526Z,99274.47
2022-10-01T16:57:57.249Z,99279.84
2022-10-01T17:00:26.747Z,99286.69
2022-10-01T17:02:54.123Z,99278.41
2022-10-01T17:05:35.550Z,99285.88
2022-10-01T17:08:04.357Z,99292.03
2022-10-01T17:10:35.839Z,99291.84
2022-10-01T17:13:03.557Z,99299.09
2022-10-01T17:15:30.738Z,99307.16
2022-10-01T17:17:58.444Z,99306.31
2022-10-01T17:20:28.418Z,99309.84
2022-10-01T17:22:56.544Z,99318.72
2022-10-01T17:25:30.999Z,99313.59
2022-10-01T17:27:58.728Z,99318.72
2022-10-01T17:30:25.385Z,99317.03
2022-10-01T17:32:51.986Z,99325.97
2022-10-01T17:35:18.391Z,99332.97
2022-10-01T17:37:44.791Z,99328.03
2022-10-01T17:40:11.347Z,99329.66
2022-10-01T17:42:38.131Z,99325.34
2022-10-01T17:45:07.393Z,99342.50
2022-10-01T17:47:34.085Z,99349.94
2022-10-01T17:50:00.653Z,99344.78
2022-10-01T17:52:30.050Z,99356.41
2022-10-01T17:54:56.435Z,99346.22
2022-10-01T17:57:23.210Z,99354.47
2022-10-01T17:59:49.579Z,99353.22
2022-10-01T18:02:40.008Z,99363.59
2022-10-01T18:05:04.125Z,99354.88
2022-10-01T18:07:30.516Z,99363.59
2022-10-01T18:09:56.870Z,99369.16
2022-10-01T18:12:23.238Z,99376.41
2022-10-01T18:14:49.810Z,99378.88
2022-10-01T18:17:16.227Z,99386.09
2022-10-01T18:19:57.862Z,99389.63
2022-10-01T18:22:24.439Z,99388.38
2022-10-01T18:24:50.853Z,99392.53
2022-10-01T18:27:17.594Z,99399.53
2022-10-01T18:29:43.985Z,99399.34
2022-10-01T18:32:18.698Z,99400.03
2022-10-01T18:34:47.408Z,99405.56
2022-10-01T18:37:25.858Z,99413.28
2022-10-01T18:40:13.143Z,99410.19
2022-10-01T18:42:49.353Z,99423.00
2022-10-01T18:45:24.372Z,99428.97
2022-10-01T18:48:03.793Z,99424.84
2022-10-01T18:50:59.718Z,99433.13
2022-10-01T18:53:48.190Z,99429.00
2022-10-01T18:56:29.418Z,99436.63
2022-10-01T18:59:14.071Z,99441.38
2022-10-01T19:01:50.265Z,99439.31
2022-10-01T19:05:05.006Z,99442.25
2022-10-01T19:07:52.583Z,99453.78
2022-10-01T19:10:22.263Z,99444.69
2022-10-01T19:13:13.718Z,99458.38
2022-10-01T19:16:02.205Z,99454.00
2022-10-01T19:18:51.830Z,99451.13
2022-10-01T19:21:45.808Z,99457.31
2022-10-01T19:24:30.691Z,99458.72
2022-10-01T19:27:13.568Z,99459.38
2022-10-01T19:30:03.262Z,99451.09
2022-10-01T19:32:52.759Z,99474.09
2022-10-01T19:35:39.466Z,99471.22
2022-10-01T19:38:14.707Z,99479.03
2022-10-01T19:40:46.213Z,99469.94
2022-10-01T19:43:26.218Z,99476.13
2022-10-01T19:46:16.509Z,99477.81
2022-10-01T19:48:48.963Z,99484.03
2022-10-01T19:51:20.135Z,99480.25
2022-10-01T19:53:50.684Z,99479.63
2022-10-01T19:56:22.996Z,99479.66
2022-10-01T19:58:49.410Z,99484.00
2022-10-01T20:01:20.554Z,99492.09
2022-10-01T20:03:57.258Z,99487.72
2022-10-01T20:06:37.262Z,99490.66
2022-10-01T20:09:17.094Z,99501.78
2022-10-01T20:11:54.721Z,99506.16
2022-10-01T20:14:51.148Z,99504.94
2022-10-01T20:17:32.670Z,99493.31
2022-10-01T20:20:17.059Z,99505.75
2022-10-01T20:23:19.493Z,99509.06
2022-10-01T20:25:53.568Z,99512.56
2022-10-01T20:28:30.385Z,99515.47
2022-10-01T20:31:08.734Z,99526.41
2022-10-01T20:34:01.484Z,99533.47
2022-10-01T20:36:41.647Z,99529.94
2022-10-01T20:39:27.969Z,99533.47
2022-10-01T20:41:56.191Z,99542.72
2022-10-01T20:44:27.880Z,99538.22
2022-10-01T20:47:00.030Z,99542.56
2022-10-01T20:49:51.310Z,99553.53
2022-10-01T20:52:31.687Z,99544.22
2022-10-01T20:55:06.571Z,99553.13
2022-10-01T20:57:42.002Z,99564.28
2022-10-01T21:00:19.364Z,99558.50
2022-10-01T21:02:51.129Z,99574.19
2022-10-01T21:05:34.294Z,99566.34
2022-10-01T21:08:11.031Z,99571.72
2022-10-01T21:10:46.469Z,99581.66
2022-10-01T21:13:53.923Z,99584.78
2022-10-01T21:16:27.956Z,99586.84
2022-10-01T21:18:54.337Z,99583.72
2022-10-01T21:21:35.223Z,99586.66
2022-10-01T21:24:27.009Z,99588.50
2022-10-01T21:27:05.575Z,99589.34
2022-10-01T21:29:47.346Z,99594.91
2022-10-01T21:32:44.506Z,99599.25
2022-10-01T21:35:44.626Z,99587.47
2022-10-01T21:38:28.529Z,99588.69
2022-10-01T21:41:14.207Z,99591.75
2022-10-01T21:43:57.487Z,99608.38
2022-10-01T21:46:42.496Z,99596.97
2022-10-01T21:49:24.897Z,99600.69
2022-10-01T21:52:04.523Z,99604.41
2022-10-01T21:54:54.831Z,99604.41
2022-10-01T21:57:55.408Z,99612.69
2022-10-01T22:00:26.815Z,99606.66
2022-10-01T22:03:41.068Z,99611.88
2022-10-01T22:06:28.901Z,99621.81
2022-10-01T22:08:55.234Z,99619.69
2022-10-01T22:11:29.693Z,99618.91
2022-10-01T22:14:01.390Z,99631.72
2022-10-01T22:16:40.807Z,99599.38
2022-10-01T22:19:13.758Z,99636.69
2022-10-01T22:21:49.783Z,99634.63
2022-10-01T22:24:19.187Z,99637.91
2022-10-01T22:26:53.779Z,99635.03
2022-10-01T22:29:27.560Z,99631.13
2022-10-01T22:31:58.921Z,99639.56
2022-10-01T22:34:34.818Z,99637.13
2022-10-01T22:37:25.604Z,99650.97
2022-10-01T22:40:01.903Z,99638.97
2022-10-01T22:42:36.994Z,99644.75
2022-10-01T22:45:13.622Z,99641.66
2022-10-01T22:48:08.232Z,99649.03
2022-10-01T22:51:04.300Z,99650.34
2022-10-01T22:53:41.940Z,99656.53
2022-10-01T22:56:13.699Z,99651.31
2022-10-01T22:59:04.392Z,99652.63
2022-10-01T23:01:49.075Z,99661.09
2022-10-01T23:04:28.438Z,99664.84
2022-10-01T23:07:17.723Z,99666.47
2022-10-01T23:09:58.286Z,99643.63
2022-10-01T23:12:30.724Z,99677.19
2022-10-01T23:15:13.594Z,99680.97
2022-10-01T23:18:06.948Z,99681.78
2022-10-01T23:20:54.795Z,99683.44
2022-10-01T23:23:32.181Z,99690.06
2022-10-01T23:26:19.160Z,99693.28
2022-10-01T23:28:48.214Z,99692.47
2022-10-01T23:31:32.892Z,99694.41
2022-10-01T23:34:15.297Z,99690.06
2022-10-01T23:36:52.495Z,99702.84
2022-10-01T23:39:30.984Z,99702.44
2022-10-01T23:42:15.726Z,99695.59
2022-10-01T23:45:00.279Z,99705.75
2022-10-01T23:47:35.087Z,99707.81
2022-10-01T23:50:03.567Z,99701.34
2022-10-01T23:52:45.277Z,99703.25
2022-10-01T23:55:36.273Z,99696.41
2022-10-01T23:58:07.765Z,99698.66
